Time;durP1;ratioP1;P1;durP2;ratioP2;P2;SDS_P1;SDS_P2;PMS_P1;PMS_P2;Temp;Humidity;BMP_temperature;BMP_pressure;BME280_temperature;BME280_humidity;BME280_pressure;Samples;Min_cycle;Max_cycle;Signal;HPM_P1;HPM_P2
2020/12/02 00:02:22;;;;;;;47.10;24.35;;;-0.90;99.90;;;;;;5018298;28;20557;-69
2020/12/02 00:04:50;;;;;;;52.83;25.23;;;-1.00;99.90;;;;;;5016771;28;20033;-69
2020/12/02 00:07:18;;;;;;;51.97;25.10;;;-1.00;99.90;;;;;;5017098;28;20045;-68
2020/12/02 00:09:43;;;;;;;52.83;24.73;;;-1.10;99.90;;;;;;5017721;28;20068;-68
2020/12/02 00:12:09;;;;;;;55.72;25.67;;;-1.10;99.90;;;;;;5017701;28;20025;-68
2020/12/02 00:14:34;;;;;;;51.22;25.02;;;-1.10;99.90;;;;;;5017758;28;20971;-68
2020/12/02 00:17:01;;;;;;;54.10;25.23;;;-1.10;99.90;;;;;;5017612;28;20029;-69
2020/12/02 00:19:27;;;;;;;58.58;26.73;;;-1.10;99.90;;;;;;5015390;28;20041;-68
2020/12/02 00:22:13;;;;;;;52.55;25.50;;;-1.10;99.90;;;;;;5015847;28;20044;-69
2020/12/02 00:24:39;;;;;;;48.70;24.33;;;-1.20;99.90;;;;;;5016046;28;20041;-69
2020/12/02 00:27:08;;;;;;;56.70;25.67;;;-1.20;99.90;;;;;;5016950;28;20839;-69
2020/12/02 00:29:34;;;;;;;54.15;25.35;;;-1.20;99.90;;;;;;5017333;28;20033;-69
2020/12/02 00:32:00;;;;;;;53.60;25.00;;;-1.30;99.90;;;;;;5017496;28;20508;-68
2020/12/02 00:34:25;;;;;;;51.38;25.13;;;-1.30;99.90;;;;;;5016537;28;20037;-69
2020/12/02 00:36:51;;;;;;;54.35;26.17;;;-1.20;99.90;;;;;;5017603;28;20128;-68
2020/12/02 00:39:17;;;;;;;56.95;25.40;;;-1.20;99.90;;;;;;5015824;28;20928;-69
2020/12/02 00:41:46;;;;;;;56.90;27.40;;;-1.20;99.90;;;;;;5017421;28;20071;-68
2020/12/02 00:44:11;;;;;;;58.05;26.05;;;-1.20;99.90;;;;;;5015706;28;20029;-68
2020/12/02 00:46:38;;;;;;;60.38;26.58;;;-1.20;99.90;;;;;;5017355;28;20044;-69
2020/12/02 00:49:04;;;;;;;59.15;27.40;;;-1.10;99.90;;;;;;4998476;28;20040;-68
2020/12/02 00:51:30;;;;;;;57.42;26.05;;;-1.10;99.90;;;;;;5017329;28;20034;-69
2020/12/02 00:53:56;;;;;;;63.50;28.10;;;-1.10;99.90;;;;;;5015901;28;20094;-69
2020/12/02 00:56:22;;;;;;;61.97;26.90;;;-1.10;99.90;;;;;;5016175;28;20128;-69
2020/12/02 00:59:16;;;;;;;63.90;28.48;;;-1.10;99.90;;;;;;5016900;28;20025;-69
2020/12/02 01:01:56;;;;;;;69.50;29.27;;;-1.10;99.90;;;;;;5016185;28;20057;-69
2020/12/02 01:04:21;;;;;;;58.92;26.67;;;-1.10;99.90;;;;;;5016461;28;20836;-69
2020/12/02 01:06:50;;;;;;;69.82;29.70;;;-1.10;99.90;;;;;;5017262;28;20037;-69
2020/12/02 01:09:17;;;;;;;65.72;28.77;;;-1.20;99.90;;;;;;5016794;28;20034;-69
2020/12/02 01:11:45;;;;;;;67.75;28.80;;;-1.20;99.90;;;;;;5016946;28;20041;-69
2020/12/02 01:14:16;;;;;;;64.68;28.02;;;-1.20;99.90;;;;;;5016791;28;20026;-69
2020/12/02 01:16:46;;;;;;;60.08;27.52;;;-1.20;99.90;;;;;;5017162;28;20037;-69
2020/12/02 01:19:23;;;;;;;62.88;26.83;;;-1.30;99.90;;;;;;5020666;28;20026;-69
2020/12/02 01:22:08;;;;;;;63.92;27.15;;;-1.30;99.90;;;;;;5020784;28;20046;-69
2020/12/02 01:24:38;;;;;;;61.65;28.02;;;-1.30;99.90;;;;;;5019544;28;20820;-69
2020/12/02 01:27:11;;;;;;;65.05;28.77;;;-1.30;99.90;;;;;;5020685;28;20041;-69
2020/12/02 01:29:42;;;;;;;62.60;27.05;;;-1.20;99.90;;;;;;5018651;28;20038;-69
2020/12/02 01:32:07;;;;;;;70.32;28.10;;;-1.20;99.90;;;;;;5020907;28;20043;-69
2020/12/02 01:34:33;;;;;;;65.82;28.92;;;-1.30;99.90;;;;;;5019487;28;20033;-69
2020/12/02 01:37:25;;;;;;;71.15;32.03;;;-1.20;99.90;;;;;;5001913;28;20144;-69
2020/12/02 01:40:18;;;;;;;70.53;29.48;;;-1.20;99.90;;;;;;5020079;28;20029;-69
2020/12/02 01:42:56;;;;;;;64.43;27.45;;;-1.20;99.90;;;;;;5015915;28;20137;-69
2020/12/02 01:45:31;;;;;;;70.75;30.83;;;-1.30;99.90;;;;;;5019212;28;20045;-69
2020/12/02 01:48:39;;;;;;;70.93;29.40;;;-1.20;99.90;;;;;;5020347;28;20038;-69
2020/12/02 01:51:29;;;;;;;65.25;28.05;;;-1.20;99.90;;;;;;5020032;28;20041;-69
2020/12/02 01:54:03;;;;;;;66.00;27.60;;;-1.30;99.90;;;;;;5020194;28;20035;-69
2020/12/02 01:57:11;;;;;;;66.82;29.08;;;-1.30;99.90;;;;;;5019196;28;20065;-69
2020/12/02 02:00:02;;;;;;;66.75;28.67;;;-1.30;99.90;;;;;;5011925;28;20053;-69
2020/12/02 02:02:37;;;;;;;67.50;28.98;;;-1.40;99.90;;;;;;5014981;28;20068;-69
2020/12/02 02:05:17;;;;;;;75.50;30.58;;;-1.40;99.90;;;;;;5019420;28;20393;-69
2020/12/02 02:07:43;;;;;;;60.65;27.48;;;-1.30;99.90;;;;;;5019783;28;20099;-69
2020/12/02 02:10:31;;;;;;;62.90;27.45;;;-1.40;99.90;;;;;;5019397;28;20498;-69
2020/12/02 02:13:35;;;;;;;67.32;28.75;;;-1.40;99.90;;;;;;5020162;28;20044;-69
2020/12/02 02:16:12;;;;;;;65.63;28.27;;;-1.40;99.90;;;;;;5019000;28;20037;-69
2020/12/02 02:18:38;;;;;;;72.63;30.25;;;-1.40;99.90;;;;;;5019642;28;20034;-69
2020/12/02 02:21:21;;;;;;;67.20;28.75;;;-1.40;99.90;;;;;;5017765;28;20040;-69
2020/12/02 02:23:47;;;;;;;66.95;29.95;;;-1.40;99.90;;;;;;5019269;28;20095;-69
2020/12/02 02:26:23;;;;;;;70.75;30.52;;;-1.50;99.90;;;;;;5018838;28;20142;-69
2020/12/02 02:29:09;;;;;;;71.65;30.92;;;-1.60;99.90;;;;;;5017220;28;20052;-69
2020/12/02 02:32:01;;;;;;;63.22;28.38;;;-1.50;99.90;;;;;;5021939;28;20045;-69
2020/12/02 02:34:30;;;;;;;65.70;28.90;;;-1.60;99.90;;;;;;5016168;28;20803;-69
2020/12/02 02:36:57;;;;;;;73.03;30.67;;;-1.50;99.90;;;;;;5017650;28;20045;-69
2020/12/02 02:39:23;;;;;;;60.80;28.20;;;-1.50;99.90;;;;;;5017772;28;20049;-68
2020/12/02 02:41:59;;;;;;;70.15;30.42;;;-1.50;99.90;;;;;;5017539;28;20573;-68
2020/12/02 02:44:25;;;;;;;70.63;29.15;;;-1.50;99.90;;;;;;5018495;28;20632;-68
2020/12/02 02:46:51;;;;;;;73.65;31.13;;;-1.50;99.90;;;;;;5019467;28;20036;-69
2020/12/02 02:49:17;;;;;;;76.72;30.70;;;-1.50;99.90;;;;;;5019082;28;20030;-69
2020/12/02 02:51:43;;;;;;;73.63;31.23;;;-1.50;99.90;;;;;;5018492;28;20029;-69
2020/12/02 02:54:09;;;;;;;83.45;31.75;;;-1.60;99.90;;;;;;5019406;28;20033;-68
2020/12/02 02:56:34;;;;;;;71.55;30.67;;;-1.60;99.90;;;;;;5018420;28;20029;-68
2020/12/02 02:59:00;;;;;;;64.03;29.65;;;-1.60;99.90;;;;;;5019040;28;20817;-69
2020/12/02 03:01:26;;;;;;;72.72;31.80;;;-1.70;99.90;;;;;;5019427;28;20053;-69
2020/12/02 03:03:52;;;;;;;73.60;31.00;;;-1.80;99.90;;;;;;5018300;28;20056;-69
2020/12/02 03:06:17;;;;;;;68.60;29.40;;;-1.80;99.90;;;;;;5018056;28;20136;-69
2020/12/02 03:08:43;;;;;;;67.13;29.80;;;-1.90;99.90;;;;;;5017012;28;20406;-69
2020/12/02 03:11:13;;;;;;;75.55;29.33;;;-1.90;99.90;;;;;;5018106;28;20485;-69
2020/12/02 03:13:49;;;;;;;68.55;29.20;;;-1.90;99.90;;;;;;5018857;28;20053;-69
2020/12/02 03:16:21;;;;;;;67.93;29.80;;;-2.00;99.90;;;;;;5018786;28;20052;-69
2020/12/02 03:18:48;;;;;;;64.22;29.25;;;-2.00;99.90;;;;;;5017498;28;20494;-69
2020/12/02 03:21:18;;;;;;;67.72;28.80;;;-2.00;99.90;;;;;;5019773;28;20040;-70
2020/12/02 03:23:44;;;;;;;65.97;30.27;;;-1.90;99.90;;;;;;5017892;28;20041;-70
2020/12/02 03:26:12;;;;;;;68.88;28.63;;;-1.80;99.90;;;;;;5019313;28;20043;-70
2020/12/02 03:28:38;;;;;;;66.80;29.05;;;-1.80;99.90;;;;;;5017520;28;20095;-70
2020/12/02 03:31:07;;;;;;;65.97;28.67;;;-1.90;99.90;;;;;;5019083;28;20048;-68
2020/12/02 03:33:33;;;;;;;69.60;29.70;;;-1.90;99.90;;;;;;5019444;28;20087;-70
2020/12/02 03:35:58;;;;;;;68.65;29.27;;;-1.90;99.90;;;;;;5017713;28;20045;-70
2020/12/02 03:38:24;;;;;;;69.90;30.10;;;-1.90;99.90;;;;;;5019711;28;20705;-70
2020/12/02 03:40:50;;;;;;;73.28;30.67;;;-1.90;99.90;;;;;;5017377;28;20043;-70
2020/12/02 03:43:16;;;;;;;74.32;31.23;;;-1.90;99.90;;;;;;5019153;28;20702;-70
2020/12/02 03:45:43;;;;;;;70.28;30.17;;;-1.80;99.90;;;;;;5019232;28;20029;-68
2020/12/02 03:48:12;;;;;;;72.80;29.73;;;-1.90;99.90;;;;;;5018069;28;20033;-68
2020/12/02 03:50:39;;;;;;;71.03;29.90;;;-1.80;99.90;;;;;;5000824;28;20038;-69
2020/12/02 03:53:06;;;;;;;72.13;30.88;;;-1.90;99.90;;;;;;5018170;28;20660;-70
2020/12/02 03:55:32;;;;;;;76.07;31.80;;;-1.90;99.90;;;;;;5017934;28;20061;-70
2020/12/02 03:57:57;;;;;;;71.70;31.13;;;-1.90;99.90;;;;;;5018570;28;20716;-70
2020/12/02 04:00:23;;;;;;;75.97;31.70;;;-1.90;99.90;;;;;;5018616;28;20040;-70
2020/12/02 04:02:49;;;;;;;79.55;31.70;;;-1.90;99.90;;;;;;5018241;28;20025;-70
2020/12/02 04:05:18;;;;;;;76.75;32.08;;;-1.90;99.90;;;;;;5018452;28;20037;-70
2020/12/02 04:07:44;;;;;;;74.75;31.00;;;-1.90;99.90;;;;;;5018511;28;20041;-70
2020/12/02 04:10:10;;;;;;;83.80;32.38;;;-2.00;99.90;;;;;;5017700;28;20036;-71
2020/12/02 04:12:36;;;;;;;83.25;33.97;;;-2.00;99.90;;;;;;5018212;28;20742;-70
2020/12/02 04:15:03;;;;;;;72.70;30.88;;;-2.00;99.90;;;;;;5017222;28;20038;-70
2020/12/02 04:17:29;;;;;;;79.95;31.25;;;-2.00;99.90;;;;;;5018236;28;20102;-70
2020/12/02 04:19:55;;;;;;;76.80;31.30;;;-2.00;99.90;;;;;;5018312;28;20047;-70
2020/12/02 04:22:21;;;;;;;81.90;32.72;;;-2.00;99.90;;;;;;5018780;28;20120;-70
2020/12/02 04:24:46;;;;;;;77.90;30.90;;;-2.00;99.90;;;;;;5016432;28;20533;-70
2020/12/02 04:27:12;;;;;;;79.05;32.63;;;-2.00;99.90;;;;;;5016959;28;20445;-69
2020/12/02 04:29:37;;;;;;;85.78;33.20;;;-2.00;99.90;;;;;;5017858;28;20033;-69
2020/12/02 04:32:05;;;;;;;77.32;31.42;;;-2.00;99.90;;;;;;5018190;28;20037;-69
2020/12/02 04:34:31;;;;;;;88.68;33.40;;;-2.00;99.90;;;;;;5016158;28;20047;-69
2020/12/02 04:36:57;;;;;;;84.57;32.83;;;-2.00;99.90;;;;;;5018241;28;20104;-69
2020/12/02 04:39:24;;;;;;;81.80;32.58;;;-2.00;99.90;;;;;;5017723;28;20107;-69
2020/12/02 04:41:50;;;;;;;78.15;32.50;;;-2.00;99.90;;;;;;5018157;28;20038;-69
2020/12/02 04:44:17;;;;;;;82.22;32.33;;;-2.00;99.90;;;;;;5016583;28;20071;-69
2020/12/02 04:46:43;;;;;;;86.50;35.75;;;-1.90;99.90;;;;;;5017628;28;20069;-69
2020/12/02 04:49:32;;;;;;;84.45;34.58;;;-1.90;99.90;;;;;;5017760;28;20033;-69
2020/12/02 04:52:04;;;;;;;85.57;33.97;;;-1.80;99.90;;;;;;5021048;28;20679;-68
2020/12/02 04:54:30;;;;;;;85.97;34.03;;;-1.80;99.90;;;;;;5021303;28;20043;-68
2020/12/02 04:56:55;;;;;;;104.57;34.92;;;-1.80;99.90;;;;;;5021929;28;20033;-68
2020/12/02 04:59:34;;;;;;;81.47;32.17;;;-1.80;99.90;;;;;;5019377;28;20081;-68
2020/12/02 05:01:59;;;;;;;87.72;33.85;;;-1.90;99.90;;;;;;5021413;28;20072;-68
2020/12/02 05:04:28;;;;;;;87.93;35.50;;;-1.90;99.90;;;;;;5021868;28;20133;-68
2020/12/02 05:07:17;;;;;;;80.00;33.90;;;-1.90;99.90;;;;;;5019955;28;20037;-69
2020/12/02 05:10:13;;;;;;;86.22;33.40;;;-1.90;99.90;;;;;;5019377;28;20083;-68
2020/12/02 05:12:42;;;;;;;86.43;35.17;;;-1.90;99.90;;;;;;5019392;28;20122;-69
2020/12/02 05:15:27;;;;;;;104.60;41.00;;;-1.90;99.90;;;;;;5021545;28;20091;-70
2020/12/02 05:18:15;;;;;;;80.55;33.95;;;-1.90;99.90;;;;;;5019933;28;20026;-68
2020/12/02 05:20:42;;;;;;;87.72;36.03;;;-2.00;99.90;;;;;;5019530;28;20495;-68
2020/12/02 05:23:21;;;;;;;89.22;34.97;;;-2.00;99.90;;;;;;5020747;28;20057;-70
2020/12/02 05:25:47;;;;;;;91.88;35.50;;;-2.10;99.90;;;;;;5021513;28;20735;-70
2020/12/02 05:28:40;;;;;;;90.32;35.75;;;-2.10;99.90;;;;;;5021348;28;20036;-70
2020/12/02 05:31:14;;;;;;;90.10;35.88;;;-2.10;99.90;;;;;;5024884;28;20060;-70
2020/12/02 05:33:40;;;;;;;81.38;34.88;;;-2.10;99.90;;;;;;5019293;28;20048;-70
2020/12/02 05:36:14;;;;;;;83.55;33.80;;;-2.10;99.90;;;;;;5020293;28;20040;-70
2020/12/02 05:39:00;;;;;;;90.30;33.83;;;-2.20;99.90;;;;;;5020648;28;20061;-71
2020/12/02 05:41:27;;;;;;;83.82;33.20;;;-2.10;99.90;;;;;;5019155;28;20119;-71
2020/12/02 05:44:05;;;;;;;82.68;33.00;;;-2.20;99.90;;;;;;5020811;28;20040;-71
2020/12/02 05:46:56;;;;;;;85.65;33.83;;;-2.20;99.90;;;;;;5018817;28;20438;-71
2020/12/02 05:49:43;;;;;;;86.15;34.00;;;-2.20;99.90;;;;;;5014721;28;20037;-69
2020/12/02 05:52:27;;;;;;;76.75;32.55;;;-2.30;99.90;;;;;;5020882;28;20706;-70
2020/12/02 05:54:56;;;;;;;77.45;31.58;;;-2.30;99.90;;;;;;5019825;28;20033;-70
2020/12/02 05:57:22;;;;;;;81.32;32.00;;;-2.30;99.90;;;;;;5020534;28;20211;-70
2020/12/02 05:59:56;;;;;;;76.65;31.55;;;-2.30;99.90;;;;;;5019812;28;20094;-70
2020/12/02 06:02:23;;;;;;;85.22;33.30;;;-2.30;99.90;;;;;;5020201;28;20521;-70
2020/12/02 06:04:51;;;;;;;82.15;32.35;;;-2.30;99.90;;;;;;5020257;28;20782;-70
2020/12/02 06:07:18;;;;;;;80.93;33.30;;;-2.30;99.90;;;;;;5019596;28;20090;-70
2020/12/02 06:09:49;;;;;;;75.70;32.30;;;-2.40;99.90;;;;;;5020017;28;20759;-71
2020/12/02 06:12:21;;;;;;;81.38;32.13;;;-2.40;99.90;;;;;;5019748;28;20091;-68
2020/12/02 06:14:48;;;;;;;79.45;31.75;;;-2.40;99.90;;;;;;5019486;28;20045;-68
2020/12/02 06:17:34;;;;;;;70.10;30.63;;;-2.40;99.90;;;;;;5019400;28;20036;-69
2020/12/02 06:20:00;;;;;;;79.28;31.50;;;-2.40;99.90;;;;;;5019465;28;20128;-68
2020/12/02 06:22:52;;;;;;;78.88;32.22;;;-2.40;99.90;;;;;;5019913;28;20801;-68
2020/12/02 06:25:44;;;;;;;82.82;31.75;;;-2.40;99.90;;;;;;5018215;28;20049;-69
2020/12/02 06:28:10;;;;;;;76.75;32.63;;;-2.40;99.90;;;;;;5020420;28;20811;-69
2020/12/02 06:30:36;;;;;;;83.22;33.33;;;-2.40;99.90;;;;;;5018329;28;20060;-70
2020/12/02 06:33:18;;;;;;;97.50;35.67;;;-2.40;99.90;;;;;;5019925;28;20033;-72
2020/12/02 06:35:48;;;;;;;95.35;33.63;;;-2.30;99.90;;;;;;5019522;28;20033;-70
2020/12/02 06:38:20;;;;;;;79.82;33.47;;;-2.30;99.90;;;;;;5019546;28;20073;-70
2020/12/02 06:40:58;;;;;;;82.43;33.13;;;-2.30;99.90;;;;;;5019116;28;20037;-70
2020/12/02 06:43:28;;;;;;;97.20;37.70;;;-2.30;99.90;;;;;;5019455;28;20057;-70
2020/12/02 06:45:59;;;;;;;89.05;35.85;;;-2.30;99.90;;;;;;5019446;28;20041;-71
2020/12/02 06:48:25;;;;;;;89.70;33.50;;;-2.20;99.90;;;;;;5020035;28;20037;-70
2020/12/02 06:50:57;;;;;;;88.93;33.08;;;-2.20;99.90;;;;;;5019280;28;20043;-70
2020/12/02 06:53:24;;;;;;;79.75;33.13;;;-2.30;99.90;;;;;;5018934;28;20779;-71
2020/12/02 06:56:01;;;;;;;86.55;33.58;;;-2.30;99.90;;;;;;5019475;28;20096;-73
2020/12/02 06:58:27;;;;;;;86.13;32.78;;;-2.30;99.90;;;;;;5032931;28;20039;-70
2020/12/02 07:00:56;;;;;;;84.78;33.85;;;-2.30;99.90;;;;;;5030230;28;20030;-69
2020/12/02 07:03:40;;;;;;;81.78;33.05;;;-2.30;99.90;;;;;;5025350;28;20048;-69
2020/12/02 07:06:25;;;;;;;84.07;34.28;;;-2.30;99.90;;;;;;5022475;28;20484;-71
2020/12/02 07:09:01;;;;;;;88.80;35.40;;;-2.20;99.90;;;;;;5028974;28;20067;-72
2020/12/02 07:11:28;;;;;;;80.10;32.78;;;-2.20;99.90;;;;;;5038645;28;20032;-69
2020/12/02 07:13:54;;;;;;;82.88;33.95;;;-2.20;99.90;;;;;;5029913;28;20037;-69
2020/12/02 07:16:25;;;;;;;84.95;33.42;;;-2.20;99.90;;;;;;5033281;28;20072;-70
2020/12/02 07:19:03;;;;;;;85.10;33.42;;;-2.20;99.90;;;;;;5035156;28;20071;-69
2020/12/02 07:21:44;;;;;;;80.97;32.13;;;-2.20;99.90;;;;;;5018835;28;20335;-72
2020/12/02 07:24:20;;;;;;;79.00;31.15;;;-2.20;99.90;;;;;;5030200;28;20068;-75
2020/12/02 07:26:49;;;;;;;80.78;32.65;;;-2.30;99.90;;;;;;5038864;28;20037;-73
2020/12/02 07:29:18;;;;;;;86.65;33.65;;;-2.20;99.90;;;;;;5033617;28;20047;-69
2020/12/02 07:31:44;;;;;;;94.03;34.75;;;-2.30;99.90;;;;;;5035476;28;20024;-70
2020/12/02 07:34:17;;;;;;;103.82;38.03;;;-2.30;99.90;;;;;;5017163;28;20489;-69
2020/12/02 07:36:43;;;;;;;104.80;39.05;;;-2.30;99.90;;;;;;5026587;28;20029;-71
2020/12/02 07:39:20;;;;;;;102.32;39.70;;;-2.20;99.90;;;;;;5037243;28;20101;-69
2020/12/02 07:42:24;;;;;;;100.30;35.88;;;-2.10;99.90;;;;;;5030219;28;20029;-69
2020/12/02 07:45:02;;;;;;;99.38;37.30;;;-2.10;99.90;;;;;;5009051;28;20068;-72
2020/12/02 07:47:28;;;;;;;84.75;35.40;;;-2.10;99.90;;;;;;5032169;28;20037;-70
2020/12/02 07:50:38;;;;;;;75.72;32.92;;;-2.00;99.90;;;;;;5028232;28;20032;-72
2020/12/02 07:53:04;;;;;;;76.57;32.78;;;-1.90;99.90;;;;;;5008271;28;20076;-75
2020/12/02 07:55:38;;;;;;;69.13;31.08;;;-1.80;99.90;;;;;;5028103;28;20228;-72
2020/12/02 07:58:05;;;;;;;64.80;29.90;;;-1.80;99.90;;;;;;5033352;28;20029;-72
2020/12/02 08:00:38;;;;;;;65.72;29.73;;;-1.70;99.90;;;;;;5026262;28;20045;-72
2020/12/02 08:03:05;;;;;;;70.25;30.70;;;-1.70;99.90;;;;;;5029214;28;20481;-72
2020/12/02 08:05:52;;;;;;;73.80;30.77;;;-1.60;99.90;;;;;;5029064;28;20044;-72
2020/12/02 08:08:18;;;;;;;77.93;33.45;;;-1.50;99.90;;;;;;5024774;28;20094;-74
2020/12/02 08:10:44;;;;;;;82.00;34.10;;;-1.00;99.90;;;;;;5037249;28;20029;-71
2020/12/02 08:13:16;;;;;;;86.10;36.20;;;-1.30;99.90;;;;;;5012258;28;20036;-72
2020/12/02 08:15:53;;;;;;;79.57;34.95;;;-1.20;99.90;;;;;;5027650;28;20041;-75
2020/12/02 08:18:22;;;;;;;77.93;33.50;;;-1.10;99.90;;;;;;5024507;28;20038;-73
2020/12/02 08:20:48;;;;;;;77.07;32.63;;;-1.00;99.90;;;;;;5034214;28;20057;-73
2020/12/02 08:23:26;;;;;;;77.10;33.85;;;-1.00;99.90;;;;;;5030465;28;20036;-73
2020/12/02 08:26:14;;;;;;;74.57;32.67;;;-0.80;99.90;;;;;;5027521;28;20045;-73
2020/12/02 08:28:40;;;;;;;68.60;31.92;;;-0.60;99.90;;;;;;5029102;28;20048;-72
2020/12/02 08:31:26;;;;;;;74.28;31.90;;;-0.50;99.90;;;;;;5009368;28;20112;-72
2020/12/02 08:34:15;;;;;;;70.15;31.10;;;-0.50;99.90;;;;;;5005872;28;20037;-71
2020/12/02 08:37:12;;;;;;;71.53;30.20;;;-0.50;99.90;;;;;;5019454;28;20568;-72
2020/12/02 08:39:41;;;;;;;68.57;31.20;;;-0.50;99.90;;;;;;5011265;28;20758;-72
2020/12/02 08:42:13;;;;;;;66.25;30.35;;;-0.50;99.90;;;;;;5014386;28;20037;-72
2020/12/02 08:44:39;;;;;;;70.28;29.70;;;-0.40;99.90;;;;;;5006779;28;20045;-71
2020/12/02 08:47:14;;;;;;;66.57;30.02;;;-0.30;99.90;;;;;;5015015;28;20033;-70
2020/12/02 08:49:40;;;;;;;72.07;32.45;;;-0.30;99.90;;;;;;5013827;28;20124;-72
2020/12/02 08:52:08;;;;;;;68.40;29.77;;;-0.10;99.90;;;;;;5011693;28;20120;-71
2020/12/02 08:54:35;;;;;;;65.50;28.77;;;0.10;99.90;;;;;;5018526;28;20041;-69
2020/12/02 08:57:06;;;;;;;70.45;30.30;;;0.30;99.90;;;;;;5004201;28;20112;-70
2020/12/02 08:59:34;;;;;;;72.45;30.83;;;0.30;99.90;;;;;;5012087;28;20053;-73
2020/12/02 09:02:10;;;;;;;65.82;30.55;;;0.60;99.90;;;;;;5014547;28;20038;-70
2020/12/02 09:04:35;;;;;;;67.40;30.67;;;0.70;99.90;;;;;;5013638;28;20048;-74
2020/12/02 09:07:02;;;;;;;63.70;30.65;;;0.70;99.90;;;;;;5022022;28;20510;-71
2020/12/02 09:09:27;;;;;;;69.07;31.05;;;0.60;99.90;;;;;;5014945;28;20060;-70
2020/12/02 09:11:54;;;;;;;70.35;30.98;;;0.70;99.90;;;;;;5014223;28;20077;-71
2020/12/02 09:14:20;;;;;;;68.00;30.80;;;1.00;99.90;;;;;;5007919;28;20044;-74
2020/12/02 09:16:46;;;;;;;63.75;29.98;;;1.30;99.90;;;;;;5013272;28;20029;-70
2020/12/02 09:19:13;;;;;;;63.85;30.27;;;1.50;99.90;;;;;;5010856;28;20030;-70
2020/12/02 09:21:39;;;;;;;67.15;30.15;;;1.70;99.90;;;;;;5020073;28;20549;-69
2020/12/02 09:24:05;;;;;;;65.72;29.15;;;1.40;99.90;;;;;;5007451;28;20112;-72
2020/12/02 09:26:33;;;;;;;65.57;29.98;;;1.40;99.90;;;;;;4998885;28;20030;-69
2020/12/02 09:29:01;;;;;;;65.90;30.80;;;1.40;99.90;;;;;;5013873;28;20111;-70
2020/12/02 09:31:30;;;;;;;71.30;31.70;;;1.40;99.90;;;;;;5006420;28;20562;-69
2020/12/02 09:33:55;;;;;;;67.35;31.02;;;1.30;99.90;;;;;;5005306;28;20057;-71
2020/12/02 09:36:22;;;;;;;60.15;30.10;;;1.30;99.90;;;;;;5017374;28;20136;-69
2020/12/02 09:38:50;;;;;;;63.83;30.60;;;1.30;99.90;;;;;;5006294;28;20077;-69
2020/12/02 09:41:27;;;;;;;66.50;31.27;;;1.20;99.90;;;;;;5018407;28;20030;-69
2020/12/02 09:44:09;;;;;;;68.28;30.13;;;1.20;99.90;;;;;;5016964;28;20033;-69
2020/12/02 09:46:36;;;;;;;61.08;28.48;;;1.00;99.90;;;;;;5021500;28;20518;-72
2020/12/02 09:49:03;;;;;;;68.43;30.45;;;1.00;99.90;;;;;;5016097;28;20512;-69
2020/12/02 09:51:31;;;;;;;66.78;30.73;;;0.90;99.90;;;;;;5018127;28;20486;-68
2020/12/02 09:53:58;;;;;;;70.22;31.00;;;1.00;99.90;;;;;;5008236;28;20779;-69
2020/12/02 09:56:27;;;;;;;64.93;30.40;;;1.00;99.90;;;;;;5011021;28;20026;-69
2020/12/02 09:58:57;;;;;;;61.95;29.23;;;1.10;99.90;;;;;;5022025;28;20026;-69
2020/12/02 10:01:51;;;;;;;63.83;29.95;;;1.30;99.90;;;;;;5005940;28;20785;-69
2020/12/02 10:04:46;;;;;;;63.22;29.95;;;1.30;99.90;;;;;;5022457;28;20140;-76
2020/12/02 10:07:21;;;;;;;66.43;30.98;;;1.50;99.90;;;;;;5019414;28;20648;-70
2020/12/02 10:10:08;;;;;;;64.97;30.23;;;1.70;99.90;;;;;;5014777;28;20055;-69
2020/12/02 10:13:01;;;;;;;63.20;29.23;;;1.90;99.90;;;;;;4989322;28;20761;-71
2020/12/02 10:15:44;;;;;;;64.10;29.17;;;2.20;99.90;;;;;;5010442;28;20049;-69
2020/12/02 10:18:37;;;;;;;60.17;28.90;;;2.30;99.90;;;;;;5014832;28;20040;-69
2020/12/02 10:21:13;;;;;;;61.83;28.67;;;2.40;99.90;;;;;;5015473;28;20125;-70
2020/12/02 10:23:53;;;;;;;60.30;27.88;;;2.40;99.90;;;;;;5011523;28;20040;-70
2020/12/02 10:27:00;;;;;;;63.00;28.50;;;2.40;99.90;;;;;;5016870;28;20037;-69
2020/12/02 10:29:39;;;;;;;61.53;29.55;;;2.30;99.90;;;;;;5011280;28;20049;-69
2020/12/02 10:32:22;;;;;;;58.30;28.20;;;2.60;99.90;;;;;;5011120;28;20045;-71
2020/12/02 10:34:48;;;;;;;62.70;29.02;;;2.70;99.90;;;;;;5018247;28;20033;-71
2020/12/02 10:37:28;;;;;;;63.78;29.85;;;2.60;99.90;;;;;;5017681;28;20656;-70
2020/12/02 10:39:54;;;;;;;56.75;28.55;;;2.80;99.90;;;;;;5010599;28;20053;-69
2020/12/02 10:42:50;;;;;;;57.28;26.58;;;3.00;99.90;;;;;;5014502;28;20133;-69
2020/12/02 10:45:18;;;;;;;61.22;27.40;;;2.80;99.90;;;;;;5025595;28;20811;-69
2020/12/02 10:48:09;;;;;;;60.28;27.52;;;2.80;99.90;;;;;;5019353;28;20045;-70
2020/12/02 10:50:37;;;;;;;56.33;27.77;;;3.00;99.90;;;;;;5007834;28;20762;-69
2020/12/02 10:53:19;;;;;;;58.33;27.52;;;2.80;99.90;;;;;;5005497;28;20120;-70
2020/12/02 10:55:44;;;;;;;57.80;26.83;;;3.10;99.90;;;;;;5005955;28;20034;-69
2020/12/02 10:58:25;;;;;;;54.75;27.60;;;3.30;99.90;;;;;;5015480;28;20028;-70
2020/12/02 11:00:56;;;;;;;55.42;26.45;;;3.20;99.90;;;;;;5029404;28;20112;-71
2020/12/02 11:03:25;;;;;;;55.35;26.25;;;3.10;99.90;;;;;;5008858;28;20026;-69
2020/12/02 11:05:58;;;;;;;52.67;25.67;;;3.40;99.90;;;;;;5017176;28;20064;-69
2020/12/02 11:08:36;;;;;;;52.08;24.30;;;3.40;99.90;;;;;;5017855;28;20072;-69
2020/12/02 11:11:15;;;;;;;54.10;25.95;;;3.40;99.90;;;;;;5011958;28;20034;-69
2020/12/02 11:13:59;;;;;;;55.58;27.02;;;3.60;99.90;;;;;;5014537;28;20073;-73
2020/12/02 11:16:41;;;;;;;52.50;25.98;;;3.70;99.90;;;;;;5032164;28;20095;-71
2020/12/02 11:19:39;;;;;;;54.28;26.52;;;3.60;99.90;;;;;;5017760;28;20037;-67
2020/12/02 11:22:13;;;;;;;57.00;26.90;;;3.80;99.90;;;;;;5013566;28;20482;-70
2020/12/02 11:24:58;;;;;;;55.50;26.77;;;3.80;99.90;;;;;;5013741;28;20036;-70
2020/12/02 11:27:24;;;;;;;52.58;26.38;;;4.00;99.90;;;;;;5024696;28;20033;-70
2020/12/02 11:29:50;;;;;;;49.63;24.35;;;4.30;99.90;;;;;;5010512;28;20697;-74
2020/12/02 11:33:06;;;;;;;52.40;24.92;;;4.50;99.90;;;;;;4993886;28;20068;-72
2020/12/02 11:35:54;;;;;;;55.47;26.05;;;4.30;99.90;;;;;;5014651;28;20146;-71
2020/12/02 11:38:27;;;;;;;52.95;26.08;;;3.90;99.90;;;;;;5007863;28;20041;-76
2020/12/02 11:41:11;;;;;;;48.70;24.65;;;4.10;99.90;;;;;;5015945;28;20474;-70
2020/12/02 11:43:43;;;;;;;51.28;25.92;;;4.40;99.90;;;;;;5005001;28;20037;-71
2020/12/02 11:46:16;;;;;;;50.88;26.63;;;4.40;99.90;;;;;;5016569;28;20029;-72
2020/12/02 11:49:10;;;;;;;49.70;26.15;;;4.80;99.90;;;;;;5016756;28;20902;-70
2020/12/02 11:52:01;;;;;;;50.78;25.45;;;4.50;99.90;;;;;;5018532;28;20095;-74
2020/12/02 11:54:28;;;;;;;55.00;25.00;;;4.30;99.90;;;;;;5023655;28;20069;-75
2020/12/02 11:56:54;;;;;;;52.20;25.73;;;4.80;99.90;;;;;;5008512;28;20788;-71
2020/12/02 11:59:34;;;;;;;49.22;24.90;;;4.50;99.90;;;;;;5011777;28;20237;-70
2020/12/02 12:02:09;;;;;;;59.65;26.05;;;4.80;99.90;;;;;;5009884;28;20112;-73
2020/12/02 12:04:35;;;;;;;48.70;23.55;;;5.30;99.90;;;;;;5019119;28;20188;-72
2020/12/02 12:07:09;;;;;;;44.60;23.08;;;5.40;99.90;;;;;;5011289;28;20059;-74
2020/12/02 12:09:58;;;;;;;45.00;22.53;;;5.70;99.90;;;;;;5008844;28;20051;-70
2020/12/02 12:12:53;;;;;;;44.55;23.15;;;5.70;99.90;;;;;;5022699;28;20042;-73
2020/12/02 12:16:04;;;;;;;46.58;23.90;;;5.60;99.90;;;;;;5009708;28;20029;-73
2020/12/02 12:18:39;;;;;;;50.28;23.38;;;5.20;99.90;;;;;;5011475;28;20129;-70
2020/12/02 12:21:41;;;;;;;48.10;23.88;;;5.10;99.90;;;;;;5027101;28;20037;-69
2020/12/02 12:24:11;;;;;;;49.70;24.85;;;4.80;99.90;;;;;;5007821;28;20053;-71
2020/12/02 12:26:42;;;;;;;43.20;23.52;;;4.60;99.90;;;;;;5007744;28;20053;-73
2020/12/02 12:29:10;;;;;;;49.88;23.38;;;4.50;99.90;;;;;;5022582;28;20038;-69
2020/12/02 12:31:46;;;;;;;43.80;22.58;;;4.20;99.90;;;;;;5007245;28;20137;-69
2020/12/02 12:34:42;;;;;;;45.80;23.83;;;4.20;99.90;;;;;;5009702;28;20513;-69
2020/12/02 12:37:20;;;;;;;44.33;23.17;;;4.60;99.90;;;;;;5014373;28;20042;-70
2020/12/02 12:39:53;;;;;;;60.83;28.77;;;4.70;99.90;;;;;;5007346;28;20095;-73
2020/12/02 12:42:22;;;;;;;83.80;40.00;;;4.30;99.90;;;;;;5011355;28;20025;-72
2020/12/02 12:44:49;;;;;;;67.95;32.33;;;4.20;99.90;;;;;;5010257;28;20037;-69
2020/12/02 12:47:19;;;;;;;67.20;31.00;;;4.00;99.90;;;;;;4999589;28;20037;-70
2020/12/02 12:49:46;;;;;;;49.92;25.90;;;3.90;99.90;;;;;;5000644;28;20025;-71
2020/12/02 12:52:17;;;;;;;50.63;24.08;;;4.00;99.90;;;;;;5017156;28;20056;-71
2020/12/02 12:54:43;;;;;;;48.60;23.23;;;4.10;99.90;;;;;;5017380;28;20045;-70
2020/12/02 12:57:15;;;;;;;49.78;23.05;;;4.10;99.90;;;;;;5006538;28;20564;-71
2020/12/02 12:59:41;;;;;;;44.13;23.15;;;4.20;99.90;;;;;;4985576;28;20140;-72
2020/12/02 13:02:23;;;;;;;52.72;25.98;;;4.20;99.90;;;;;;4998083;28;20737;-68
2020/12/02 13:04:49;;;;;;;44.10;23.15;;;4.20;99.90;;;;;;5015041;28;20109;-71